createdAt,value
2018-11-29T00:26:57.712Z,61
2018-11-29T00:37:01.352Z,59
2018-11-29T00:47:04.976Z,59
2018-11-29T00:57:08.655Z,59
2018-11-29T01:07:12.238Z,56
2018-11-29T01:17:15.945Z,59
2018-11-29T01:27:19.573Z,58
2018-11-29T01:37:24.161Z,58
2018-11-29T01:47:27.767Z,57
2018-11-29T01:57:31.327Z,57
2018-11-29T02:07:35.022Z,58
2018-11-29T02:17:38.706Z,56
2018-11-29T02:27:42.284Z,56
2018-11-29T02:37:45.863Z,57
2018-11-29T02:47:49.543Z,56
2018-11-29T02:57:53.262Z,56
2018-11-29T03:07:56.899Z,56
2018-11-29T03:18:00.553Z,56
2018-11-29T03:28:04.129Z,56
2018-11-29T03:38:07.757Z,54
2018-11-29T03:48:11.398Z,55
2018-11-29T03:58:14.928Z,54
2018-11-29T04:08:18.475Z,55
2018-11-29T04:18:22.102Z,55
2018-11-29T04:28:25.745Z,54
2018-11-29T04:38:29.387Z,54
2018-11-29T04:48:33.987Z,54
2018-11-29T04:58:37.604Z,53
2018-11-29T05:08:41.188Z,53
2018-11-29T05:18:44.765Z,53
2018-11-29T05:28:48.366Z,54
2018-11-29T05:38:51.949Z,54
2018-11-29T05:48:55.609Z,54
2018-11-29T05:58:59.172Z,53
2018-11-29T06:09:02.816Z,54
2018-11-29T06:19:06.422Z,54
2018-11-29T06:29:09.965Z,38
2018-11-29T06:39:13.599Z,47
2018-11-29T06:49:17.178Z,48
2018-11-29T06:59:20.783Z,49
2018-11-29T07:09:24.386Z,51
2018-11-29T07:19:28.527Z,50
2018-11-29T07:29:32.102Z,50
2018-11-29T07:39:35.686Z,48
2018-11-29T07:49:39.283Z,48
2018-11-29T07:59:42.925Z,50
2018-11-29T08:09:46.593Z,52
2018-11-29T08:19:50.205Z,52
2018-11-29T08:29:53.811Z,51
2018-11-29T08:39:57.477Z,52
2018-11-29T08:50:01.064Z,51
2018-11-29T09:00:04.779Z,53
2018-11-29T09:10:08.484Z,54
2018-11-29T09:20:12.120Z,57
2018-11-29T09:30:15.672Z,57
2018-11-29T09:40:19.386Z,58
2018-11-29T09:50:22.935Z,59
2018-11-29T10:00:28.931Z,60
2018-11-29T10:10:32.641Z,61
2018-11-29T10:20:36.869Z,62
2018-11-29T10:30:40.538Z,64
2018-11-29T10:44:36.007Z,65
2018-11-29T10:57:44.239Z,66
2018-11-29T11:06:50.509Z,67
